Time,TemperatureF,DewpointF,PressureIn,WindDirection,WindDirectionDegrees,WindSpeedMPH,WindSpeedGustMPH,Humidity,HourlyPrecipIn,Conditions,Clouds,dailyrainin,SoftwareType,DateUTC
2013-01-01 00:05:00,55.9,55.9,29.94,South,174,2.0,2.0,100,0.00,,,0.00,Wunderground v.1.15,2013-01-01 06:05:00,
2013-01-01 00:10:00,55.9,55.9,29.94,South,174,1.0,1.0,100,0.00,,,0.00,Wunderground v.1.15,2013-01-01 06:10:00,
2013-01-01 00:20:00,55.7,55.7,29.94,South,174,0.0,0.0,100,0.00,,,0.01,Wunderground v.1.15,2013-01-01 06:20:00,
2013-01-01 00:25:00,55.7,55.7,29.95,South,174,0.0,0.0,100,0.11,,,0.02,Wunderground v.1.15,2013-01-01 06:25:00,
2013-01-01 00:35:00,55.7,55.7,29.95,South,174,0.0,0.0,100,0.06,,,0.03,Wunderground v.1.15,2013-01-01 06:35:00,
2013-01-01 00:40:00,55.7,55.7,29.95,South,174,0.0,0.0,100,0.04,,,0.03,Wunderground v.1.15,2013-01-01 06:40:00,
2013-01-01 00:50:00,55.7,55.7,29.95,South,174,0.0,0.0,100,0.00,,,0.03,Wunderground v.1.15,2013-01-01 06:50:00,
2013-01-01 00:55:00,55.7,55.7,29.95,South,174,0.0,0.0,100,0.00,,,0.03,Wunderground v.1.15,2013-01-01 06:55:00,
2013-01-01 01:05:00,55.7,55.7,29.95,South,174,0.0,0.0,100,0.00,,,0.03,Wunderground v.1.15,2013-01-01 07:05:00,
2013-01-01 01:10:00,55.7,55.7,29.94,South,174,0.0,0.0,100,0.00,,,0.03,Wunderground v.1.15,2013-01-01 07:10:00,
2013-01-01 01:20:00,55.6,55.6,29.95,South,174,0.0,0.0,100,0.00,,,0.03,Wunderground v.1.15,2013-01-01 07:20:00,
2013-01-01 01:25:00,55.6,55.6,29.95,South,174,0.0,0.0,100,0.00,,,0.03,Wunderground v.1.15,2013-01-01 07:25:00,
2013-01-01 01:35:00,55.6,55.6,29.95,South,174,0.0,0.0,100,0.00,,,0.03,Wunderground v.1.15,2013-01-01 07:35:00,
2013-01-01 01:40:00,55.6,55.6,29.95,South,174,0.0,0.0,100,0.00,,,0.03,Wunderground v.1.15,2013-01-01 07:40:00,
2013-01-01 01:50:00,55.6,55.6,29.94,South,174,0.0,0.0,100,0.00,,,0.03,Wunderground v.1.15,2013-01-01 07:50:00,
2013-01-01 01:55:00,55.6,55.6,29.94,South,174,0.0,2.0,100,0.00,,,0.03,Wunderground v.1.15,2013-01-01 07:55:00,
2013-01-01 02:05:00,55.6,55.6,29.94,South,174,1.0,1.0,100,0.00,,,0.03,Wunderground v.1.15,2013-01-01 08:05:00,
2013-01-01 02:10:00,55.6,55.6,29.94,South,174,0.0,0.0,100,0.00,,,0.03,Wunderground v.1.15,2013-01-01 08:10:00,
2013-01-01 02:20:00,55.4,55.4,29.93,South,174,0.0,0.0,100,0.00,,,0.03,Wunderground v.1.15,2013-01-01 08:20:00,
2013-01-01 02:25:00,55.4,55.4,29.93,South,174,1.0,1.0,100,0.00,,,0.03,Wunderground v.1.15,2013-01-01 08:25:00,
2013-01-01 02:35:00,55.3,55.3,29.93,South,174,1.0,2.0,100,0.00,,,0.03,Wunderground v.1.15,2013-01-01 08:35:00,
2013-01-01 02:40:00,55.3,55.3,29.93,South,174,2.0,2.0,100,0.00,,,0.03,Wunderground v.1.15,2013-01-01 08:40:00,
2013-01-01 02:50:00,55.0,55.0,29.94,South,174,3.0,3.0,100,0.00,,,0.03,Wunderground v.1.15,2013-01-01 08:50:00,
2013-01-01 02:55:00,55.0,55.0,29.94,South,174,1.0,3.0,100,0.00,,,0.03,Wunderground v.1.15,2013-01-01 08:55:00,
2013-01-01 03:05:00,54.8,54.8,29.95,South,174,2.0,2.0,100,0.00,,,0.03,Wunderground v.1.15,2013-01-01 09:05:00,
2013-01-01 03:10:00,54.8,54.8,29.95,South,174,2.0,3.0,100,0.00,,,0.04,Wunderground v.1.15,2013-01-01 09:10:00,
2013-01-01 03:20:00,54.7,54.7,29.96,South,174,1.0,3.0,100,0.00,,,0.04,Wunderground v.1.15,2013-01-01 09:20:00,
2013-01-01 03:25:00,54.7,54.7,29.96,South,174,2.0,3.0,100,0.00,,,0.04,Wunderground v.1.15,2013-01-01 09:25:00,
2013-01-01 03:35:00,54.5,54.5,29.97,South,174,2.0,2.0,100,0.00,,,0.04,Wunderground v.1.15,2013-01-01 09:35:00,
2013-01-01 03:40:00,54.5,54.5,29.97,South,174,2.0,7.0,100,0.00,,,0.04,Wunderground v.1.15,2013-01-01 09:40:00,
2013-01-01 03:50:00,54.5,54.5,30.01,South,174,2.0,3.0,100,0.00,,,0.04,Wunderground v.1.15,2013-01-01 09:50:00,
2013-01-01 03:55:00,54.5,54.5,30.00,South,182,2.0,6.0,100,0.00,,,0.05,Wunderground v.1.15,2013-01-01 09:55:00,
2013-01-01 04:05:00,54.4,54.4,29.99,ENE,73,4.0,7.0,100,0.08,,,0.06,Wunderground v.1.15,2013-01-01 10:05:00,
2013-01-01 04:10:00,53.9,53.9,29.99,North,10,5.0,13.0,100,0.14,,,0.07,Wunderground v.1.15,2013-01-01 10:10:00,
2013-01-01 04:20:00,53.2,53.2,29.99,NNE,27,5.0,6.0,100,0.07,,,0.08,Wunderground v.1.15,2013-01-01 10:20:00,
2013-01-01 04:25:00,52.9,52.9,29.99,NNE,31,4.0,6.0,100,0.05,,,0.08,Wunderground v.1.15,2013-01-01 10:25:00,
2013-01-01 04:35:00,52.5,52.5,29.99,NNE,28,5.0,5.0,100,0.00,,,0.08,Wunderground v.1.15,2013-01-01 10:35:00,
2013-01-01 04:40:00,52.0,52.0,29.99,NNE,13,6.0,7.0,100,0.00,,,0.09,Wunderground v.1.15,2013-01-01 10:40:00,
2013-01-01 04:50:00,51.3,51.3,30.01,NNE,31,5.0,5.0,100,0.00,,,0.09,Wunderground v.1.15,2013-01-01 10:50:00,
2013-01-01 04:55:00,50.8,50.8,30.01,NNE,14,6.0,8.0,100,0.00,,,0.09,Wunderground v.1.15,2013-01-01 10:55:00,
2013-01-01 05:05:00,49.9,49.9,30.00,NNE,32,6.0,8.0,100,0.00,,,0.09,Wunderground v.1.15,2013-01-01 11:05:00,
2013-01-01 05:10:00,49.5,49.5,30.02,NNE,23,6.0,6.0,100,0.00,,,0.10,Wunderground v.1.15,2013-01-01 11:10:00,
2013-01-01 05:20:00,48.8,48.8,30.01,NNE,25,5.0,5.0,100,0.00,,,0.10,Wunderground v.1.15,2013-01-01 11:20:00,
2013-01-01 05:25:00,48.5,48.5,30.02,NE,40,5.0,5.0,100,0.00,,,0.10,Wunderground v.1.15,2013-01-01 11:25:00,
2013-01-01 05:35:00,48.2,48.2,30.02,NNE,28,3.0,4.0,100,0.00,,,0.10,Wunderground v.1.15,2013-01-01 11:35:00,
2013-01-01 05:40:00,48.0,48.0,30.02,NNE,24,3.0,3.0,100,0.00,,,0.10,Wunderground v.1.15,2013-01-01 11:40:00,
2013-01-01 05:50:00,47.9,47.9,30.02,NE,37,1.0,1.0,100,0.00,,,0.10,Wunderground v.1.15,2013-01-01 11:50:00,
2013-01-01 05:55:00,47.7,47.7,30.02,NNE,25,1.0,5.0,100,0.00,,,0.10,Wunderground v.1.15,2013-01-01 11:55:00,
2013-01-01 06:05:00,47.7,47.7,30.02,NNE,30,1.0,2.0,100,0.00,,,0.10,Wunderground v.1.15,2013-01-01 12:05:00,
2013-01-01 06:10:00,47.7,47.7,30.03,NNE,32,1.0,1.0,100,0.00,,,0.10,Wunderground v.1.15,2013-01-01 12:10:00,
2013-01-01 06:20:00,47.6,47.6,30.04,NNE,31,1.0,1.0,100,0.00,,,0.10,Wunderground v.1.15,2013-01-01 12:20:00,
2013-01-01 06:25:00,47.4,47.4,30.04,NNE,14,1.0,4.0,100,0.00,,,0.10,Wunderground v.1.15,2013-01-01 12:25:00,
2013-01-01 06:35:00,47.4,47.4,30.05,North,3,3.0,6.0,100,0.00,,,0.10,Wunderground v.1.15,2013-01-01 12:35:00,
2013-01-01 06:40:00,47.3,47.3,30.05,North,3,3.0,3.0,100,0.00,,,0.10,Wunderground v.1.15,2013-01-01 12:40:00,
2013-01-01 06:50:00,47.1,47.1,30.04,North,6,0.0,0.0,100,0.00,,,0.10,Wunderground v.1.15,2013-01-01 12:50:00,
2013-01-01 06:55:00,47.1,47.1,30.05,NE,35,1.0,2.0,100,0.00,,,0.10,Wunderground v.1.15,2013-01-01 12:55:00,
2013-01-01 07:05:00,46.8,46.8,30.05,NNE,24,3.0,3.0,100,0.00,,,0.10,Wunderground v.1.15,2013-01-01 13:05:00,
2013-01-01 07:10:00,46.8,46.8,30.06,NNE,23,1.0,9.0,100,0.00,,,0.10,Wunderground v.1.15,2013-01-01 13:10:00,
2013-01-01 07:20:00,46.8,46.8,30.07,NNE,17,1.0,1.0,100,0.00,,,0.10,Wunderground v.1.15,2013-01-01 13:20:00,
2013-01-01 07:25:00,46.7,46.7,30.07,North,7,0.0,1.0,100,0.00,,,0.10,Wunderground v.1.15,2013-01-01 13:25:00,
2013-01-01 07:35:00,46.5,46.5,30.07,North,8,0.0,0.0,100,0.00,,,0.10,Wunderground v.1.15,2013-01-01 13:35:00,
2013-01-01 07:40:00,46.5,46.5,30.08,North,8,0.0,0.0,100,0.00,,,0.10,Wunderground v.1.15,2013-01-01 13:40:00,
2013-01-01 07:50:00,46.4,46.4,30.09,North,10,1.0,3.0,100,0.00,,,0.10,Wunderground v.1.15,2013-01-01 13:50:00,
2013-01-01 07:55:00,46.2,46.2,30.08,North,11,0.0,3.0,100,0.00,,,0.10,Wunderground v.1.15,2013-01-01 13:55:00,
2013-01-01 08:05:00,46.4,46.4,30.09,North,10,0.0,1.0,100,0.00,,,0.10,Wunderground v.1.15,2013-01-01 14:05:00,
2013-01-01 08:10:00,46.4,46.4,30.09,North,10,0.0,0.0,100,0.00,,,0.10,Wunderground v.1.15,2013-01-01 14:10:00,
2013-01-01 08:20:00,46.4,46.4,30.09,North,8,0.0,0.0,100,0.00,,,0.10,Wunderground v.1.15,2013-01-01 14:20:00,
2013-01-01 08:25:00,46.4,46.4,30.09,North,10,0.0,1.0,100,0.00,,,0.10,Wunderground v.1.15,2013-01-01 14:25:00,
2013-01-01 08:35:00,46.2,46.2,30.09,North,10,0.0,0.0,100,0.00,,,0.10,Wunderground v.1.15,2013-01-01 14:35:00,
2013-01-01 08:40:00,46.1,46.1,30.09,NNE,18,2.0,6.0,100,0.00,,,0.10,Wunderground v.1.15,2013-01-01 14:40:00,
2013-01-01 08:50:00,46.0,46.0,30.10,NNE,13,2.0,2.0,100,0.00,,,0.10,Wunderground v.1.15,2013-01-01 14:50:00,
2013-01-01 08:55:00,45.8,45.8,30.11,North,11,1.0,2.0,100,0.00,,,0.10,Wunderground v.1.15,2013-01-01 14:55:00,
2013-01-01 09:05:00,46.0,46.0,30.12,North,11,0.0,0.0,100,0.00,,,0.10,Wunderground v.1.15,2013-01-01 15:05:00,
2013-01-01 09:10:00,46.1,46.1,30.12,North,6,1.0,5.0,100,0.00,,,0.10,Wunderground v.1.15,2013-01-01 15:10:00,
2013-01-01 09:20:00,45.5,45.5,30.13,NW,318,0.0,0.0,100,0.00,,,0.10,Wunderground v.1.15,2013-01-01 15:20:00,
2013-01-01 09:25:00,45.4,45.4,30.14,North,359,1.0,1.0,100,0.00,,,0.10,Wunderground v.1.15,2013-01-01 15:25:00,
2013-01-01 09:35:00,45.1,45.1,30.14,North,353,5.0,12.0,100,0.00,,,0.10,Wunderground v.1.15,2013-01-01 15:35:00,
2013-01-01 09:40:00,44.9,44.9,30.14,North,1,4.0,8.0,100,0.00,,,0.10,Wunderground v.1.15,2013-01-01 15:40:00,
2013-01-01 09:50:00,44.9,44.9,30.14,North,0,2.0,12.0,100,0.00,,,0.10,Wunderground v.1.15,2013-01-01 15:50:00,
2013-01-01 09:55:00,44.8,44.8,30.15,North,0,3.0,12.0,100,0.00,,,0.10,Wunderground v.1.15,2013-01-01 15:55:00,
2013-01-01 10:05:00,44.6,44.6,30.16,North,0,3.0,5.0,100,0.00,,,0.10,Wunderground v.1.15,2013-01-01 16:05:00,
2013-01-01 10:10:00,44.6,44.6,30.16,NNW,347,2.0,2.0,100,0.00,,,0.10,Wunderground v.1.15,2013-01-01 16:10:00,
2013-01-01 10:20:00,44.9,44.9,30.16,NW,316,2.0,2.0,100,0.00,,,0.10,Wunderground v.1.15,2013-01-01 16:20:00,
2013-01-01 10:25:00,44.9,44.9,30.16,North,353,1.0,2.0,100,0.00,,,0.10,Wunderground v.1.15,2013-01-01 16:25:00,
2013-01-01 10:35:00,44.9,44.9,30.16,North,349,2.0,6.0,100,0.00,,,0.10,Wunderground v.1.15,2013-01-01 16:35:00,
2013-01-01 10:40:00,44.9,44.9,30.16,NNW,346,5.0,5.0,100,0.00,,,0.10,Wunderground v.1.15,2013-01-01 16:40:00,
2013-01-01 10:50:00,44.9,44.9,30.16,North,353,5.0,6.0,100,0.00,,,0.10,Wunderground v.1.15,2013-01-01 16:50:00,
2013-01-01 10:55:00,45.1,45.1,30.16,North,7,5.0,6.0,100,0.00,,,0.10,Wunderground v.1.15,2013-01-01 16:55:00,
2013-01-01 11:05:00,44.9,44.9,30.16,North,0,4.0,6.0,100,0.00,,,0.10,Wunderground v.1.15,2013-01-01 17:05:00,
2013-01-01 11:10:00,45.1,45.1,30.16,NW,306,4.0,10.0,100,0.00,,,0.10,Wunderground v.1.15,2013-01-01 17:10:00,
2013-01-01 11:20:00,45.2,45.2,30.16,NNW,344,4.0,7.0,100,0.00,,,0.10,Wunderground v.1.15,2013-01-01 17:20:00,
2013-01-01 11:25:00,45.2,45.2,30.16,North,10,4.0,7.0,100,0.00,,,0.10,Wunderground v.1.15,2013-01-01 17:25:00,
2013-01-01 11:35:00,45.5,45.5,30.15,NNW,344,4.0,9.0,100,0.00,,,0.10,Wunderground v.1.15,2013-01-01 17:35:00,
2013-01-01 11:40:00,45.5,45.5,30.16,North,0,5.0,8.0,100,0.00,,,0.10,Wunderground v.1.15,2013-01-01 17:40:00,
2013-01-01 11:50:00,46.2,44.8,30.15,North,357,6.0,6.0,95,0.00,,,0.10,Wunderground v.1.15,2013-01-01 17:50:00,
2013-01-01 11:55:00,46.5,44.6,30.14,North,359,5.0,8.0,93,0.00,,,0.10,Wunderground v.1.15,2013-01-01 17:55:00,
2013-01-01 12:05:00,47.0,44.5,30.15,North,354,4.0,4.0,91,0.00,,,0.10,Wunderground v.1.15,2013-01-01 18:05:00,
2013-01-01 12:10:00,47.0,43.9,30.14,North,359,4.0,4.0,89,0.00,,,0.10,Wunderground v.1.15,2013-01-01 18:10:00,
2013-01-01 12:20:00,46.8,43.7,30.15,NNW,340,2.0,2.0,89,0.00,,,0.10,Wunderground v.1.15,2013-01-01 18:20:00,
2013-01-01 12:25:00,46.7,43.6,30.15,North,356,3.0,4.0,89,0.00,,,0.10,Wunderground v.1.15,2013-01-01 18:25:00,
2013-01-01 12:35:00,46.8,43.1,30.15,North,357,6.0,13.0,87,0.00,,,0.10,Wunderground v.1.15,2013-01-01 18:35:00,
2013-01-01 12:40:00,46.8,43.1,30.14,NW,316,6.0,6.0,87,0.00,,,0.10,Wunderground v.1.15,2013-01-01 18:40:00,
2013-01-01 12:50:00,46.7,43.6,30.14,NW,312,5.0,5.0,89,0.00,,,0.10,Wunderground v.1.15,2013-01-01 18:50:00,
2013-01-01 12:55:00,46.5,43.4,30.14,North,350,3.0,9.0,89,0.00,,,0.10,Wunderground v.1.15,2013-01-01 18:55:00,
2013-01-01 13:05:00,46.2,43.1,30.13,NNW,346,2.0,3.0,89,0.00,,,0.10,Wunderground v.1.15,2013-01-01 19:05:00,
2013-01-01 13:10:00,46.0,42.9,30.14,North,357,1.0,1.0,89,0.00,,,0.10,Wunderground v.1.15,2013-01-01 19:10:00,
2013-01-01 13:20:00,45.4,42.3,30.13,NNW,340,4.0,4.0,89,0.00,,,0.10,Wunderground v.1.15,2013-01-01 19:20:00,
2013-01-01 13:25:00,45.2,42.2,30.13,North,359,3.0,4.0,89,0.00,,,0.10,Wunderground v.1.15,2013-01-01 19:25:00,
2013-01-01 13:35:00,45.2,42.2,30.13,North,353,2.0,2.0,89,0.00,,,0.10,Wunderground v.1.15,2013-01-01 19:35:00,
2013-01-01 13:40:00,45.2,42.4,30.13,NNW,346,0.0,11.0,90,0.00,,,0.10,Wunderground v.1.15,2013-01-01 19:40:00,
2013-01-01 13:50:00,45.4,42.3,30.13,NNW,332,2.0,13.0,89,0.00,,,0.10,Wunderground v.1.15,2013-01-01 19:50:00,
2013-01-01 13:55:00,45.1,41.8,30.13,NNW,343,3.0,13.0,88,0.00,,,0.10,Wunderground v.1.15,2013-01-01 19:55:00,
2013-01-01 14:05:00,45.1,41.8,30.13,North,0,1.0,2.0,88,0.00,,,0.10,Wunderground v.1.15,2013-01-01 20:05:00,
2013-01-01 14:10:00,44.9,41.6,30.13,North,0,2.0,2.0,88,0.00,,,0.10,Wunderground v.1.15,2013-01-01 20:10:00,
2013-01-01 14:20:00,44.8,41.2,30.13,NNW,339,4.0,7.0,87,0.00,,,0.10,Wunderground v.1.15,2013-01-01 20:20:00,
2013-01-01 14:25:00,44.6,41.0,30.13,NNW,346,4.0,7.0,87,0.00,,,0.10,Wunderground v.1.15,2013-01-01 20:25:00,
2013-01-01 14:35:00,44.6,41.0,30.13,NNW,344,1.0,4.0,87,0.00,,,0.10,Wunderground v.1.15,2013-01-01 20:35:00,
2013-01-01 14:40:00,44.6,41.0,30.13,NNW,346,1.0,1.0,87,0.00,,,0.10,Wunderground v.1.15,2013-01-01 20:40:00,
2013-01-01 14:50:00,44.8,40.9,30.13,North,352,1.0,6.0,86,0.00,,,0.10,Wunderground v.1.15,2013-01-01 20:50:00,
2013-01-01 14:55:00,44.8,40.9,30.13,NNW,343,2.0,6.0,86,0.00,,,0.10,Wunderground v.1.15,2013-01-01 20:55:00,
2013-01-01 15:05:00,45.4,41.8,30.14,NNW,337,0.0,1.0,87,0.00,,,0.10,Wunderground v.1.15,2013-01-01 21:05:00,
2013-01-01 15:10:00,45.5,41.3,30.14,NNW,330,0.0,0.0,85,0.00,,,0.10,Wunderground v.1.15,2013-01-01 21:10:00,
2013-01-01 15:20:00,45.8,41.5,30.14,NNW,329,0.0,0.0,85,0.00,,,0.10,Wunderground v.1.15,2013-01-01 21:20:00,
2013-01-01 15:25:00,46.0,41.7,30.14,NW,319,0.0,1.0,85,0.00,,,0.10,Wunderground v.1.15,2013-01-01 21:25:00,
2013-01-01 15:35:00,46.0,41.4,30.14,NW,325,1.0,1.0,84,0.00,,,0.10,Wunderground v.1.15,2013-01-01 21:35:00,
2013-01-01 15:40:00,46.1,41.5,30.14,NW,326,0.0,0.0,84,0.00,,,0.10,Wunderground v.1.15,2013-01-01 21:40:00,
2013-01-01 15:50:00,46.1,41.2,30.14,NNW,342,0.0,0.0,83,0.00,,,0.10,Wunderground v.1.15,2013-01-01 21:50:00,
2013-01-01 15:55:00,46.2,41.3,30.14,NW,322,1.0,1.0,83,0.00,,,0.10,Wunderground v.1.15,2013-01-01 21:55:00,
2013-01-01 16:05:00,46.4,41.5,30.15,NW,322,0.0,1.0,83,0.00,,,0.10,Wunderground v.1.15,2013-01-01 22:05:00,
2013-01-01 16:10:00,46.2,41.3,30.15,NW,320,0.0,6.0,83,0.00,,,0.10,Wunderground v.1.15,2013-01-01 22:10:00,
2013-01-01 16:20:00,46.4,41.2,30.15,NNW,343,1.0,1.0,82,0.00,,,0.10,Wunderground v.1.15,2013-01-01 22:20:00,
2013-01-01 16:25:00,46.5,41.6,30.15,NNW,330,0.0,1.0,83,0.00,,,0.10,Wunderground v.1.15,2013-01-01 22:25:00,
2013-01-01 16:35:00,46.7,41.2,30.15,North,356,0.0,0.0,81,0.00,,,0.10,Wunderground v.1.15,2013-01-01 22:35:00,
2013-01-01 16:40:00,46.7,41.5,30.15,North,354,0.0,0.0,82,0.00,,,0.10,Wunderground v.1.15,2013-01-01 22:40:00,
2013-01-01 16:50:00,46.5,41.6,30.15,North,350,0.0,0.0,83,0.00,,,0.10,Wunderground v.1.15,2013-01-01 22:50:00,
2013-01-01 16:55:00,46.4,41.5,30.15,NNW,347,0.0,0.0,83,0.00,,,0.10,Wunderground v.1.15,2013-01-01 22:55:00,
2013-01-01 17:05:00,46.2,41.3,30.15,NNW,347,0.0,0.0,83,0.00,,,0.10,Wunderground v.1.15,2013-01-01 23:05:00,
2013-01-01 17:10:00,46.1,41.5,30.15,NNW,347,0.0,0.0,84,0.00,,,0.10,Wunderground v.1.15,2013-01-01 23:10:00,
2013-01-01 17:20:00,45.8,41.2,30.15,NNW,347,0.0,0.0,84,0.00,,,0.10,Wunderground v.1.15,2013-01-01 23:20:00,
2013-01-01 17:25:00,45.7,41.1,30.16,NNW,347,0.0,0.0,84,0.00,,,0.10,Wunderground v.1.15,2013-01-01 23:25:00,
2013-01-01 17:35:00,45.4,41.2,30.17,NNW,347,0.0,0.0,85,0.00,,,0.10,Wunderground v.1.15,2013-01-01 23:35:00,
2013-01-01 17:40:00,45.1,40.9,30.17,NNW,347,0.0,0.0,85,0.00,,,0.10,Wunderground v.1.15,2013-01-01 23:40:00,
2013-01-01 17:50:00,44.5,40.6,30.16,NNW,347,0.0,0.0,86,0.00,,,0.10,Wunderground v.1.15,2013-01-01 23:50:00,
2013-01-01 17:55:00,44.2,40.3,30.16,NNW,347,0.0,0.0,86,0.00,,,0.10,Wunderground v.1.15,2013-01-01 23:55:00,
2013-01-01 18:05:00,43.9,39.7,30.17,NNW,347,0.0,0.0,85,0.00,,,0.10,Wunderground v.1.15,2013-01-02 00:05:00,
2013-01-01 18:10:00,43.8,39.6,30.17,NNW,347,0.0,0.0,85,0.00,,,0.10,Wunderground v.1.15,2013-01-02 00:10:00,
2013-01-01 18:20:00,43.5,39.3,30.17,NNW,347,0.0,0.0,85,0.00,,,0.10,Wunderground v.1.15,2013-01-02 00:20:00,
2013-01-01 18:25:00,43.3,39.1,30.17,NNW,347,0.0,0.0,85,0.00,,,0.10,Wunderground v.1.15,2013-01-02 00:25:00,
2013-01-01 18:35:00,43.1,38.9,30.17,NNW,347,0.0,0.0,85,0.00,,,0.10,Wunderground v.1.15,2013-01-02 00:35:00,
2013-01-01 18:40:00,42.9,38.7,30.17,NNW,347,0.0,0.0,85,0.00,,,0.10,Wunderground v.1.15,2013-01-02 00:40:00,
2013-01-01 18:50:00,42.8,38.6,30.18,NNW,347,0.0,0.0,85,0.00,,,0.10,Wunderground v.1.15,2013-01-02 00:50:00,
2013-01-01 18:55:00,42.6,38.4,30.19,NNW,347,0.0,0.0,85,0.00,,,0.10,Wunderground v.1.15,2013-01-02 00:55:00,
2013-01-01 19:05:00,42.8,38.3,30.19,North,349,0.0,0.0,84,0.00,,,0.10,Wunderground v.1.15,2013-01-02 01:05:00,
2013-01-01 19:10:00,42.8,38.6,30.19,North,350,0.0,0.0,85,0.00,,,0.10,Wunderground v.1.15,2013-01-02 01:10:00,
2013-01-01 19:20:00,42.8,38.3,30.20,North,352,0.0,0.0,84,0.00,,,0.10,Wunderground v.1.15,2013-01-02 01:20:00,
2013-01-01 19:25:00,42.6,38.4,30.20,North,352,0.0,0.0,85,0.00,,,0.10,Wunderground v.1.15,2013-01-02 01:25:00,
2013-01-01 19:35:00,42.5,38.0,30.20,North,354,0.0,0.0,84,0.00,,,0.10,Wunderground v.1.15,2013-01-02 01:35:00,
2013-01-01 19:40:00,42.3,37.8,30.21,North,356,0.0,0.0,84,0.00,,,0.10,Wunderground v.1.15,2013-01-02 01:40:00,
2013-01-01 19:50:00,42.2,37.7,30.21,North,356,0.0,0.0,84,0.00,,,0.10,Wunderground v.1.15,2013-01-02 01:50:00,
2013-01-01 19:55:00,42.1,37.6,30.21,North,357,0.0,0.0,84,0.00,,,0.10,Wunderground v.1.15,2013-01-02 01:55:00,
2013-01-01 20:05:00,41.9,37.1,30.21,North,359,0.0,0.0,83,0.00,,,0.10,Wunderground v.1.15,2013-01-02 02:05:00,
2013-01-01 20:10:00,41.8,37.0,30.21,North,0,0.0,0.0,83,0.00,,,0.10,Wunderground v.1.15,2013-01-02 02:10:00,
2013-01-01 20:20:00,41.6,36.8,30.22,North,0,0.0,0.0,83,0.00,,,0.10,Wunderground v.1.15,2013-01-02 02:20:00,
2013-01-01 20:25:00,41.6,36.8,30.22,North,0,0.0,0.0,83,0.00,,,0.10,Wunderground v.1.15,2013-01-02 02:25:00,
2013-01-01 20:35:00,41.3,36.8,30.22,North,0,0.0,0.0,84,0.00,,,0.10,Wunderground v.1.15,2013-01-02 02:35:00,
2013-01-01 20:40:00,41.2,36.4,30.23,North,0,0.0,0.0,83,0.00,,,0.10,Wunderground v.1.15,2013-01-02 02:40:00,
2013-01-01 20:50:00,41.1,36.6,30.23,North,0,0.0,0.0,84,0.00,,,0.10,Wunderground v.1.15,2013-01-02 02:50:00,
2013-01-01 20:55:00,40.9,36.1,30.23,North,0,0.0,0.0,83,0.00,,,0.10,Wunderground v.1.15,2013-01-02 02:55:00,
2013-01-01 21:05:00,40.6,36.1,30.23,North,0,0.0,0.0,84,0.00,,,0.10,Wunderground v.1.15,2013-01-02 03:05:00,
2013-01-01 21:10:00,40.6,36.1,30.23,North,0,0.0,0.0,84,0.00,,,0.10,Wunderground v.1.15,2013-01-02 03:10:00,
2013-01-01 21:20:00,40.3,35.8,30.23,North,0,0.0,0.0,84,0.00,,,0.10,Wunderground v.1.15,2013-01-02 03:20:00,
2013-01-01 21:25:00,40.2,36.1,30.23,North,0,0.0,0.0,85,0.00,,,0.10,Wunderground v.1.15,2013-01-02 03:25:00,
2013-01-01 21:35:00,39.9,35.8,30.23,North,0,0.0,0.0,85,0.00,,,0.10,Wunderground v.1.15,2013-01-02 03:35:00,
2013-01-01 21:40:00,39.8,35.7,30.23,North,0,0.0,0.0,85,0.00,,,0.10,Wunderground v.1.15,2013-01-02 03:40:00,
2013-01-01 21:50:00,39.5,35.7,30.23,North,0,0.0,0.0,86,0.00,,,0.10,Wunderground v.1.15,2013-01-02 03:50:00,
2013-01-01 21:55:00,39.5,35.7,30.24,North,0,0.0,0.0,86,0.00,,,0.10,Wunderground v.1.15,2013-01-02 03:55:00,
2013-01-01 22:05:00,39.3,35.5,30.24,North,0,0.0,0.0,86,0.00,,,0.10,Wunderground v.1.15,2013-01-02 04:05:00,
2013-01-01 22:10:00,39.2,35.4,30.23,North,0,0.0,0.0,86,0.00,,,0.10,Wunderground v.1.15,2013-01-02 04:10:00,
2013-01-01 22:20:00,39.1,35.0,30.23,North,0,0.0,0.0,85,0.00,,,0.10,Wunderground v.1.15,2013-01-02 04:20:00,
2013-01-01 22:25:00,39.1,35.0,30.23,North,0,0.0,0.0,85,0.00,,,0.10,Wunderground v.1.15,2013-01-02 04:25:00,
2013-01-01 22:35:00,38.9,34.8,30.24,North,0,0.0,0.0,85,0.00,,,0.10,Wunderground v.1.15,2013-01-02 04:35:00,
2013-01-01 22:40:00,38.8,34.7,30.25,North,0,0.0,0.0,85,0.00,,,0.10,Wunderground v.1.15,2013-01-02 04:40:00,
2013-01-01 22:50:00,38.6,34.5,30.25,North,0,0.0,0.0,85,0.00,,,0.10,Wunderground v.1.15,2013-01-02 04:50:00,
2013-01-01 22:55:00,38.5,34.7,30.24,North,0,0.0,0.0,86,0.00,,,0.10,Wunderground v.1.15,2013-01-02 04:55:00,
2013-01-01 23:00:00,38.5,34.7,30.24,North,0,0.0,0.0,86,0.00,,,0.10,Wunderground v.1.15,2013-01-02 05:00:00,
2013-01-01 23:05:00,38.3,34.5,30.24,North,0,0.0,1.0,86,0.00,,,0.10,Wunderground v.1.15,2013-01-02 05:05:00,
2013-01-01 23:10:00,38.0,33.9,30.24,North,356,2.0,2.0,85,0.00,,,0.10,Wunderground v.1.15,2013-01-02 05:10:00,
2013-01-01 23:15:00,37.9,33.5,30.24,NNW,337,4.0,8.0,84,0.00,,,0.10,Wunderground v.1.15,2013-01-02 05:15:00,
2013-01-01 23:20:00,37.9,33.2,30.24,North,359,6.0,6.0,83,0.00,,,0.10,Wunderground v.1.15,2013-01-02 05:20:00,
2013-01-01 23:25:00,37.9,32.9,30.24,North,0,4.0,6.0,82,0.00,,,0.10,Wunderground v.1.15,2013-01-02 05:25:00,
2013-01-01 23:35:00,37.8,33.1,30.24,North,350,2.0,2.0,83,0.00,,,0.10,Wunderground v.1.15,2013-01-02 05:35:00,
2013-01-01 23:40:00,37.6,32.9,30.24,North,354,2.0,2.0,83,0.00,,,0.10,Wunderground v.1.15,2013-01-02 05:40:00,
2013-01-01 23:50:00,37.5,32.2,30.23,North,1,2.0,2.0,81,0.00,,,0.10,Wunderground v.1.15,2013-01-02 05:50:00,
2013-01-01 23:55:00,37.5,32.5,30.24,North,0,2.0,2.0,82,0.00,,,0.10,Wunderground v.1.15,2013-01-02 05:55:00,